sensor_id;sensor_type;location;lat;lon;timestamp;temperature;humidity
54684;DHT22;40582;53.100;6.686;2023-06-14T00:00:31;17.40;75.40
54684;DHT22;40582;53.100;6.686;2023-06-14T00:02:59;17.40;75.90
54684;DHT22;40582;53.100;6.686;2023-06-14T00:05:25;17.40;75.80
54684;DHT22;40582;53.100;6.686;2023-06-14T00:07:51;17.40;75.90
54684;DHT22;40582;53.100;6.686;2023-06-14T00:10:19;17.40;75.90
54684;DHT22;40582;53.100;6.686;2023-06-14T00:12:44;17.20;76.20
54684;DHT22;40582;53.100;6.686;2023-06-14T00:15:10;17.20;76.60
54684;DHT22;40582;53.100;6.686;2023-06-14T00:17:36;17.00;76.90
54684;DHT22;40582;53.100;6.686;2023-06-14T00:20:06;16.90;77.40
54684;DHT22;40582;53.100;6.686;2023-06-14T00:22:32;16.80;77.40
54684;DHT22;40582;53.100;6.686;2023-06-14T00:24:58;16.80;77.80
54684;DHT22;40582;53.100;6.686;2023-06-14T00:27:24;16.70;78.40
54684;DHT22;40582;53.100;6.686;2023-06-14T00:29:50;16.70;78.50
54684;DHT22;40582;53.100;6.686;2023-06-14T00:32:16;16.70;78.90
54684;DHT22;40582;53.100;6.686;2023-06-14T00:34:41;16.70;79.10
54684;DHT22;40582;53.100;6.686;2023-06-14T00:37:07;16.70;79.10
54684;DHT22;40582;53.100;6.686;2023-06-14T00:39:33;16.60;79.30
54684;DHT22;40582;53.100;6.686;2023-06-14T00:41:59;16.70;79.80
54684;DHT22;40582;53.100;6.686;2023-06-14T00:44:24;16.60;79.70
54684;DHT22;40582;53.100;6.686;2023-06-14T00:46:50;16.50;79.90
54684;DHT22;40582;53.100;6.686;2023-06-14T00:49:17;16.50;80.20
54684;DHT22;40582;53.100;6.686;2023-06-14T00:51:43;16.50;80.80
54684;DHT22;40582;53.100;6.686;2023-06-14T00:54:10;16.50;81.00
54684;DHT22;40582;53.100;6.686;2023-06-14T00:56:36;16.40;80.90
54684;DHT22;40582;53.100;6.686;2023-06-14T00:59:03;16.30;81.20
54684;DHT22;40582;53.100;6.686;2023-06-14T01:01:32;16.30;82.10
54684;DHT22;40582;53.100;6.686;2023-06-14T01:04:00;16.20;82.20
54684;DHT22;40582;53.100;6.686;2023-06-14T01:11:56;16.10;83.00
54684;DHT22;40582;53.100;6.686;2023-06-14T01:14:24;16.00;83.00
54684;DHT22;40582;53.100;6.686;2023-06-14T01:16:51;16.10;83.10
54684;DHT22;40582;53.100;6.686;2023-06-14T01:19:18;16.10;82.90
54684;DHT22;40582;53.100;6.686;2023-06-14T01:21:48;16.10;83.40
54684;DHT22;40582;53.100;6.686;2023-06-14T01:24:16;16.10;83.70
54684;DHT22;40582;53.100;6.686;2023-06-14T01:26:45;16.20;83.90
54684;DHT22;40582;53.100;6.686;2023-06-14T01:29:13;16.20;83.50
54684;DHT22;40582;53.100;6.686;2023-06-14T01:31:42;16.20;83.70
54684;DHT22;40582;53.100;6.686;2023-06-14T01:34:08;16.10;84.00
54684;DHT22;40582;53.100;6.686;2023-06-14T01:36:36;16.00;83.80
54684;DHT22;40582;53.100;6.686;2023-06-14T01:39:03;16.00;84.30
54684;DHT22;40582;53.100;6.686;2023-06-14T01:41:30;16.00;84.70
54684;DHT22;40582;53.100;6.686;2023-06-14T01:43:56;16.00;84.80
54684;DHT22;40582;53.100;6.686;2023-06-14T01:46:23;15.90;84.30
54684;DHT22;40582;53.100;6.686;2023-06-14T01:48:49;15.90;85.00
54684;DHT22;40582;53.100;6.686;2023-06-14T01:51:15;15.90;85.30
54684;DHT22;40582;53.100;6.686;2023-06-14T01:53:41;15.90;85.30
54684;DHT22;40582;53.100;6.686;2023-06-14T01:56:07;15.80;85.30
54684;DHT22;40582;53.100;6.686;2023-06-14T01:58:33;15.80;85.40
54684;DHT22;40582;53.100;6.686;2023-06-14T02:00:58;15.70;85.50
54684;DHT22;40582;53.100;6.686;2023-06-14T02:03:26;15.70;86.00
54684;DHT22;40582;53.100;6.686;2023-06-14T02:05:52;15.70;86.40
54684;DHT22;40582;53.100;6.686;2023-06-14T02:08:18;15.70;86.20
54684;DHT22;40582;53.100;6.686;2023-06-14T02:10:43;15.70;86.30
54684;DHT22;40582;53.100;6.686;2023-06-14T02:13:09;15.70;86.40
54684;DHT22;40582;53.100;6.686;2023-06-14T02:15:35;15.70;86.30
54684;DHT22;40582;53.100;6.686;2023-06-14T02:18:01;15.70;86.40
54684;DHT22;40582;53.100;6.686;2023-06-14T02:20:28;15.70;86.40
54684;DHT22;40582;53.100;6.686;2023-06-14T02:22:54;15.80;86.10
54684;DHT22;40582;53.100;6.686;2023-06-14T02:25:20;15.80;86.10
54684;DHT22;40582;53.100;6.686;2023-06-14T02:27:46;15.80;86.40
54684;DHT22;40582;53.100;6.686;2023-06-14T02:30:12;15.80;86.40
54684;DHT22;40582;53.100;6.686;2023-06-14T02:32:38;15.80;86.40
54684;DHT22;40582;53.100;6.686;2023-06-14T02:35:04;15.80;86.30
54684;DHT22;40582;53.100;6.686;2023-06-14T02:37:30;15.60;86.60
54684;DHT22;40582;53.100;6.686;2023-06-14T02:39:56;15.60;87.30
54684;DHT22;40582;53.100;6.686;2023-06-14T02:42:22;15.70;87.10
54684;DHT22;40582;53.100;6.686;2023-06-14T02:44:47;15.50;87.10
54684;DHT22;40582;53.100;6.686;2023-06-14T02:47:17;15.40;87.60
54684;DHT22;40582;53.100;6.686;2023-06-14T02:49:43;15.40;88.00
54684;DHT22;40582;53.100;6.686;2023-06-14T02:52:09;15.50;88.00
54684;DHT22;40582;53.100;6.686;2023-06-14T02:54:35;15.50;87.90
54684;DHT22;40582;53.100;6.686;2023-06-14T02:57:01;15.50;88.10
54684;DHT22;40582;53.100;6.686;2023-06-14T02:59:27;15.50;88.30
54684;DHT22;40582;53.100;6.686;2023-06-14T03:01:53;15.30;88.50
54684;DHT22;40582;53.100;6.686;2023-06-14T03:04:18;15.20;89.30
54684;DHT22;40582;53.100;6.686;2023-06-14T03:06:44;15.20;89.40
54684;DHT22;40582;53.100;6.686;2023-06-14T03:09:09;15.10;89.80
54684;DHT22;40582;53.100;6.686;2023-06-14T03:11:35;15.10;90.10
54684;DHT22;40582;53.100;6.686;2023-06-14T03:14:01;15.00;90.30
54684;DHT22;40582;53.100;6.686;2023-06-14T03:16:29;15.00;90.50
54684;DHT22;40582;53.100;6.686;2023-06-14T03:18:55;15.00;90.70
54684;DHT22;40582;53.100;6.686;2023-06-14T03:21:21;15.00;90.70
54684;DHT22;40582;53.100;6.686;2023-06-14T03:23:47;14.90;91.10
54684;DHT22;40582;53.100;6.686;2023-06-14T03:26:14;14.90;91.30
54684;DHT22;40582;53.100;6.686;2023-06-14T03:28:49;14.90;91.50
54684;DHT22;40582;53.100;6.686;2023-06-14T03:31:15;14.90;92.00
54684;DHT22;40582;53.100;6.686;2023-06-14T03:33:41;14.90;91.70
54684;DHT22;40582;53.100;6.686;2023-06-14T03:36:07;14.80;91.90
54684;DHT22;40582;53.100;6.686;2023-06-14T03:38:33;14.80;92.20
54684;DHT22;40582;53.100;6.686;2023-06-14T03:40:59;14.90;92.50
54684;DHT22;40582;53.100;6.686;2023-06-14T03:43:25;14.90;92.60
54684;DHT22;40582;53.100;6.686;2023-06-14T03:45:51;14.90;92.70
54684;DHT22;40582;53.100;6.686;2023-06-14T03:48:16;14.90;92.60
54684;DHT22;40582;53.100;6.686;2023-06-14T03:50:42;15.00;92.70
54684;DHT22;40582;53.100;6.686;2023-06-14T03:53:10;14.90;92.90
54684;DHT22;40582;53.100;6.686;2023-06-14T03:55:35;14.90;93.00
54684;DHT22;40582;53.100;6.686;2023-06-14T03:58:03;14.80;93.20
54684;DHT22;40582;53.100;6.686;2023-06-14T04:00:29;14.90;93.40
54684;DHT22;40582;53.100;6.686;2023-06-14T04:02:55;14.90;93.40
54684;DHT22;40582;53.100;6.686;2023-06-14T04:05:21;14.80;93.50
54684;DHT22;40582;53.100;6.686;2023-06-14T04:07:46;14.80;93.60
54684;DHT22;40582;53.100;6.686;2023-06-14T04:10:15;14.80;93.90
54684;DHT22;40582;53.100;6.686;2023-06-14T04:12:41;14.70;94.00
54684;DHT22;40582;53.100;6.686;2023-06-14T04:15:08;14.70;94.10
54684;DHT22;40582;53.100;6.686;2023-06-14T04:17:37;14.70;94.20
54684;DHT22;40582;53.100;6.686;2023-06-14T04:20:03;14.60;94.70
54684;DHT22;40582;53.100;6.686;2023-06-14T04:22:31;14.80;95.00
54684;DHT22;40582;53.100;6.686;2023-06-14T04:24:57;14.80;95.10
54684;DHT22;40582;53.100;6.686;2023-06-14T04:27:23;14.90;95.20
54684;DHT22;40582;53.100;6.686;2023-06-14T04:29:54;15.00;95.00
54684;DHT22;40582;53.100;6.686;2023-06-14T04:32:31;15.10;94.70
54684;DHT22;40582;53.100;6.686;2023-06-14T04:34:59;15.10;94.90
54684;DHT22;40582;53.100;6.686;2023-06-14T04:37:29;15.10;94.70
54684;DHT22;40582;53.100;6.686;2023-06-14T04:39:56;15.20;95.00
54684;DHT22;40582;53.100;6.686;2023-06-14T04:42:23;15.40;94.90
54684;DHT22;40582;53.100;6.686;2023-06-14T04:44:51;15.60;94.80
54684;DHT22;40582;53.100;6.686;2023-06-14T04:47:17;15.90;94.40
54684;DHT22;40582;53.100;6.686;2023-06-14T04:49:43;16.40;93.60
54684;DHT22;40582;53.100;6.686;2023-06-14T04:52:10;17.30;92.50
54684;DHT22;40582;53.100;6.686;2023-06-14T04:54:36;18.10;91.20
54684;DHT22;40582;53.100;6.686;2023-06-14T04:57:11;18.20;90.70
54684;DHT22;40582;53.100;6.686;2023-06-14T04:59:43;18.00;90.50
54684;DHT22;40582;53.100;6.686;2023-06-14T05:02:10;17.90;90.60
54684;DHT22;40582;53.100;6.686;2023-06-14T05:04:38;18.00;90.40
54684;DHT22;40582;53.100;6.686;2023-06-14T05:07:09;19.10;88.60
54684;DHT22;40582;53.100;6.686;2023-06-14T05:09:35;19.30;86.80
54684;DHT22;40582;53.100;6.686;2023-06-14T05:12:01;18.80;87.60
54684;DHT22;40582;53.100;6.686;2023-06-14T05:14:27;19.80;85.70
54684;DHT22;40582;53.100;6.686;2023-06-14T05:16:52;21.40;82.30
54684;DHT22;40582;53.100;6.686;2023-06-14T05:19:19;22.70;79.00
54684;DHT22;40582;53.100;6.686;2023-06-14T05:21:46;23.90;76.40
54684;DHT22;40582;53.100;6.686;2023-06-14T05:24:13;24.70;73.40
54684;DHT22;40582;53.100;6.686;2023-06-14T05:26:39;25.30;71.80
54684;DHT22;40582;53.100;6.686;2023-06-14T05:29:05;25.70;70.50
54684;DHT22;40582;53.100;6.686;2023-06-14T05:31:31;26.10;69.90
54684;DHT22;40582;53.100;6.686;2023-06-14T05:33:57;26.80;68.70
54684;DHT22;40582;53.100;6.686;2023-06-14T05:36:22;27.50;67.40
54684;DHT22;40582;53.100;6.686;2023-06-14T05:38:48;28.20;66.20
54684;DHT22;40582;53.100;6.686;2023-06-14T05:41:14;28.80;64.90
54684;DHT22;40582;53.100;6.686;2023-06-14T05:43:40;29.30;63.70
54684;DHT22;40582;53.100;6.686;2023-06-14T05:46:05;29.60;62.90
54684;DHT22;40582;53.100;6.686;2023-06-14T05:48:31;29.50;62.00
54684;DHT22;40582;53.100;6.686;2023-06-14T05:50:57;29.80;61.90
54684;DHT22;40582;53.100;6.686;2023-06-14T05:53:23;30.00;61.10
54684;DHT22;40582;53.100;6.686;2023-06-14T05:55:50;30.20;61.40
54684;DHT22;40582;53.100;6.686;2023-06-14T05:58:17;30.30;60.60
54684;DHT22;40582;53.100;6.686;2023-06-14T06:00:42;30.70;60.00
54684;DHT22;40582;53.100;6.686;2023-06-14T06:03:08;31.00;59.70
54684;DHT22;40582;53.100;6.686;2023-06-14T06:05:34;31.50;58.80
54684;DHT22;40582;53.100;6.686;2023-06-14T06:08:00;32.00;58.10
54684;DHT22;40582;53.100;6.686;2023-06-14T06:10:26;32.20;57.40
54684;DHT22;40582;53.100;6.686;2023-06-14T06:12:51;32.40;56.90
54684;DHT22;40582;53.100;6.686;2023-06-14T06:15:20;32.00;56.70
54684;DHT22;40582;53.100;6.686;2023-06-14T06:17:46;32.20;57.00
54684;DHT22;40582;53.100;6.686;2023-06-14T06:20:12;32.50;57.00
54684;DHT22;40582;53.100;6.686;2023-06-14T06:22:38;33.10;56.50
54684;DHT22;40582;53.100;6.686;2023-06-14T06:25:05;33.70;55.80
54684;DHT22;40582;53.100;6.686;2023-06-14T06:27:31;34.20;55.10
54684;DHT22;40582;53.100;6.686;2023-06-14T06:29:57;34.30;54.70
54684;DHT22;40582;53.100;6.686;2023-06-14T06:32:23;34.30;54.10
54684;DHT22;40582;53.100;6.686;2023-06-14T06:34:48;34.30;54.30
54684;DHT22;40582;53.100;6.686;2023-06-14T06:37:14;34.20;53.40
54684;DHT22;40582;53.100;6.686;2023-06-14T06:39:40;33.70;53.60
54684;DHT22;40582;53.100;6.686;2023-06-14T06:42:06;33.90;53.80
54684;DHT22;40582;53.100;6.686;2023-06-14T06:44:32;33.70;53.70
54684;DHT22;40582;53.100;6.686;2023-06-14T06:46:58;33.70;53.50
54684;DHT22;40582;53.100;6.686;2023-06-14T06:49:24;34.20;53.40
54684;DHT22;40582;53.100;6.686;2023-06-14T06:52:06;34.80;53.00
54684;DHT22;40582;53.100;6.686;2023-06-14T06:54:33;34.70;52.00
54684;DHT22;40582;53.100;6.686;2023-06-14T06:56:59;34.70;52.70
54684;DHT22;40582;53.100;6.686;2023-06-14T06:59:25;34.30;52.10
54684;DHT22;40582;53.100;6.686;2023-06-14T07:01:51;34.60;52.20
54684;DHT22;40582;53.100;6.686;2023-06-14T07:04:16;35.00;51.40
54684;DHT22;40582;53.100;6.686;2023-06-14T07:06:43;35.00;51.20
54684;DHT22;40582;53.100;6.686;2023-06-14T07:09:08;35.00;51.00
54684;DHT22;40582;53.100;6.686;2023-06-14T07:11:42;34.70;51.70
54684;DHT22;40582;53.100;6.686;2023-06-14T07:14:08;34.80;51.60
54684;DHT22;40582;53.100;6.686;2023-06-14T07:16:33;34.80;51.00
54684;DHT22;40582;53.100;6.686;2023-06-14T07:18:59;34.50;51.50
54684;DHT22;40582;53.100;6.686;2023-06-14T07:21:26;34.30;51.30
54684;DHT22;40582;53.100;6.686;2023-06-14T07:23:53;34.10;51.30
54684;DHT22;40582;53.100;6.686;2023-06-14T07:26:19;34.10;51.80
54684;DHT22;40582;53.100;6.686;2023-06-14T07:28:45;34.60;51.60
54684;DHT22;40582;53.100;6.686;2023-06-14T07:31:11;33.90;51.80
54684;DHT22;40582;53.100;6.686;2023-06-14T07:33:38;33.50;51.80
54684;DHT22;40582;53.100;6.686;2023-06-14T07:36:04;33.30;52.00
54684;DHT22;40582;53.100;6.686;2023-06-14T07:38:29;33.00;51.90
54684;DHT22;40582;53.100;6.686;2023-06-14T07:40:55;33.30;52.30
54684;DHT22;40582;53.100;6.686;2023-06-14T07:43:21;33.60;52.20
54684;DHT22;40582;53.100;6.686;2023-06-14T07:45:46;33.50;51.60
54684;DHT22;40582;53.100;6.686;2023-06-14T07:48:12;33.20;51.70
54684;DHT22;40582;53.100;6.686;2023-06-14T07:50:38;33.10;51.50
54684;DHT22;40582;53.100;6.686;2023-06-14T07:53:03;32.60;52.20
54684;DHT22;40582;53.100;6.686;2023-06-14T07:55:29;32.80;52.90
54684;DHT22;40582;53.100;6.686;2023-06-14T07:57:56;32.80;52.40
54684;DHT22;40582;53.100;6.686;2023-06-14T08:00:21;32.80;52.60
54684;DHT22;40582;53.100;6.686;2023-06-14T08:02:47;32.90;53.00
54684;DHT22;40582;53.100;6.686;2023-06-14T08:05:13;33.00;53.00
54684;DHT22;40582;53.100;6.686;2023-06-14T08:07:39;32.90;52.70
54684;DHT22;40582;53.100;6.686;2023-06-14T08:10:06;32.80;52.80
54684;DHT22;40582;53.100;6.686;2023-06-14T08:12:32;32.40;52.60
54684;DHT22;40582;53.100;6.686;2023-06-14T08:14:59;32.50;53.40
54684;DHT22;40582;53.100;6.686;2023-06-14T08:17:24;32.90;53.20
54684;DHT22;40582;53.100;6.686;2023-06-14T08:19:50;32.60;52.60
54684;DHT22;40582;53.100;6.686;2023-06-14T08:22:16;32.60;52.80
54684;DHT22;40582;53.100;6.686;2023-06-14T08:24:43;32.10;52.60
54684;DHT22;40582;53.100;6.686;2023-06-14T08:27:10;31.50;53.00
54684;DHT22;40582;53.100;6.686;2023-06-14T08:29:35;31.50;53.20
54684;DHT22;40582;53.100;6.686;2023-06-14T08:32:01;31.80;52.70
54684;DHT22;40582;53.100;6.686;2023-06-14T08:34:27;30.80;53.20
54684;DHT22;40582;53.100;6.686;2023-06-14T08:36:53;30.60;53.90
54684;DHT22;40582;53.100;6.686;2023-06-14T08:39:19;30.40;54.80
54684;DHT22;40582;53.100;6.686;2023-06-14T08:41:46;30.10;54.50
54684;DHT22;40582;53.100;6.686;2023-06-14T08:44:15;30.40;55.10
54684;DHT22;40582;53.100;6.686;2023-06-14T08:46:41;30.40;54.60
54684;DHT22;40582;53.100;6.686;2023-06-14T08:49:08;30.00;54.20
54684;DHT22;40582;53.100;6.686;2023-06-14T08:51:35;30.00;54.80
54684;DHT22;40582;53.100;6.686;2023-06-14T08:54:02;29.90;55.60
54684;DHT22;40582;53.100;6.686;2023-06-14T08:56:30;30.20;54.90
54684;DHT22;40582;53.100;6.686;2023-06-14T08:58:57;30.00;54.70
54684;DHT22;40582;53.100;6.686;2023-06-14T09:01:26;30.10;56.00
54684;DHT22;40582;53.100;6.686;2023-06-14T09:03:52;29.80;55.10
54684;DHT22;40582;53.100;6.686;2023-06-14T09:06:21;29.70;55.70
54684;DHT22;40582;53.100;6.686;2023-06-14T09:08:49;29.80;55.30
54684;DHT22;40582;53.100;6.686;2023-06-14T09:11:16;29.40;55.00
54684;DHT22;40582;53.100;6.686;2023-06-14T09:13:45;29.50;55.00
54684;DHT22;40582;53.100;6.686;2023-06-14T09:16:11;29.40;55.00
54684;DHT22;40582;53.100;6.686;2023-06-14T09:18:40;29.60;55.80
54684;DHT22;40582;53.100;6.686;2023-06-14T09:21:10;29.30;56.40
54684;DHT22;40582;53.100;6.686;2023-06-14T09:23:43;29.20;56.60
54684;DHT22;40582;53.100;6.686;2023-06-14T09:26:17;28.90;55.50
54684;DHT22;40582;53.100;6.686;2023-06-14T09:28:47;28.90;56.00
54684;DHT22;40582;53.100;6.686;2023-06-14T09:31:15;28.50;55.60
54684;DHT22;40582;53.100;6.686;2023-06-14T09:33:42;27.90;56.30
54684;DHT22;40582;53.100;6.686;2023-06-14T09:36:20;27.50;57.00
54684;DHT22;40582;53.100;6.686;2023-06-14T09:39:13;27.50;56.90
54684;DHT22;40582;53.100;6.686;2023-06-14T09:41:42;27.30;57.00
54684;DHT22;40582;53.100;6.686;2023-06-14T09:44:10;27.60;56.80
54684;DHT22;40582;53.100;6.686;2023-06-14T09:46:37;27.60;57.30
54684;DHT22;40582;53.100;6.686;2023-06-14T09:49:04;27.60;56.90
54684;DHT22;40582;53.100;6.686;2023-06-14T09:51:31;27.60;57.20
54684;DHT22;40582;53.100;6.686;2023-06-14T09:54:01;27.40;57.50
54684;DHT22;40582;53.100;6.686;2023-06-14T09:56:32;27.30;57.80
54684;DHT22;40582;53.100;6.686;2023-06-14T09:58:59;27.20;57.30
54684;DHT22;40582;53.100;6.686;2023-06-14T10:01:31;27.20;57.90
54684;DHT22;40582;53.100;6.686;2023-06-14T10:04:05;27.20;57.30
54684;DHT22;40582;53.100;6.686;2023-06-14T10:06:32;27.20;57.30
54684;DHT22;40582;53.100;6.686;2023-06-14T10:09:00;27.40;57.40
54684;DHT22;40582;53.100;6.686;2023-06-14T10:11:27;27.50;57.90
54684;DHT22;40582;53.100;6.686;2023-06-14T10:13:57;27.50;57.90
54684;DHT22;40582;53.100;6.686;2023-06-14T10:16:30;27.20;57.50
54684;DHT22;40582;53.100;6.686;2023-06-14T10:21:51;27.00;57.60
54684;DHT22;40582;53.100;6.686;2023-06-14T10:24:33;27.10;57.40
54684;DHT22;40582;53.100;6.686;2023-06-14T10:26:59;27.10;57.50
54684;DHT22;40582;53.100;6.686;2023-06-14T10:29:27;26.70;56.70
54684;DHT22;40582;53.100;6.686;2023-06-14T10:31:58;26.50;56.80
54684;DHT22;40582;53.100;6.686;2023-06-14T10:34:29;26.60;57.30
54684;DHT22;40582;53.100;6.686;2023-06-14T10:37:05;26.60;58.00
54684;DHT22;40582;53.100;6.686;2023-06-14T10:39:38;26.50;57.00
54684;DHT22;40582;53.100;6.686;2023-06-14T10:42:05;26.50;56.80
54684;DHT22;40582;53.100;6.686;2023-06-14T10:47:08;27.10;57.40
54684;DHT22;40582;53.100;6.686;2023-06-14T10:49:38;27.00;56.10
54684;DHT22;40582;53.100;6.686;2023-06-14T10:52:12;26.90;56.70
54684;DHT22;40582;53.100;6.686;2023-06-14T10:55:05;26.80;55.90
54684;DHT22;40582;53.100;6.686;2023-06-14T10:57:42;26.90;55.20
54684;DHT22;40582;53.100;6.686;2023-06-14T11:00:09;26.80;56.00
54684;DHT22;40582;53.100;6.686;2023-06-14T11:08:25;27.60;58.90
54684;DHT22;40582;53.100;6.686;2023-06-14T11:10:54;27.80;57.70
54684;DHT22;40582;53.100;6.686;2023-06-14T11:13:25;27.90;55.70
54684;DHT22;40582;53.100;6.686;2023-06-14T11:15:51;27.80;55.40
54684;DHT22;40582;53.100;6.686;2023-06-14T11:18:23;27.90;55.80
54684;DHT22;40582;53.100;6.686;2023-06-14T11:20:53;28.10;56.40
54684;DHT22;40582;53.100;6.686;2023-06-14T11:23:19;28.10;56.70
54684;DHT22;40582;53.100;6.686;2023-06-14T11:25:51;28.10;56.00
54684;DHT22;40582;53.100;6.686;2023-06-14T11:28:17;27.60;55.10
54684;DHT22;40582;53.100;6.686;2023-06-14T11:30:45;27.40;55.30
54684;DHT22;40582;53.100;6.686;2023-06-14T11:33:11;27.20;56.00
54684;DHT22;40582;53.100;6.686;2023-06-14T11:35:42;27.20;56.40
54684;DHT22;40582;53.100;6.686;2023-06-14T11:38:10;27.10;55.80
54684;DHT22;40582;53.100;6.686;2023-06-14T11:40:38;27.00;56.50
54684;DHT22;40582;53.100;6.686;2023-06-14T11:43:03;27.10;57.00
54684;DHT22;40582;53.100;6.686;2023-06-14T11:45:30;27.20;56.50
54684;DHT22;40582;53.100;6.686;2023-06-14T11:47:58;27.30;55.80
54684;DHT22;40582;53.100;6.686;2023-06-14T11:50:24;27.10;55.90
54684;DHT22;40582;53.100;6.686;2023-06-14T11:52:57;27.40;56.20
54684;DHT22;40582;53.100;6.686;2023-06-14T11:55:25;27.30;55.40
54684;DHT22;40582;53.100;6.686;2023-06-14T11:57:53;27.20;55.50
54684;DHT22;40582;53.100;6.686;2023-06-14T12:00:19;27.00;55.60
54684;DHT22;40582;53.100;6.686;2023-06-14T12:02:56;26.80;55.70
54684;DHT22;40582;53.100;6.686;2023-06-14T12:05:22;26.70;56.00
54684;DHT22;40582;53.100;6.686;2023-06-14T12:07:49;26.80;57.40
54684;DHT22;40582;53.100;6.686;2023-06-14T12:10:16;26.90;57.40
54684;DHT22;40582;53.100;6.686;2023-06-14T12:12:42;26.90;56.50
54684;DHT22;40582;53.100;6.686;2023-06-14T12:15:09;27.00;57.50
54684;DHT22;40582;53.100;6.686;2023-06-14T12:17:37;27.10;57.40
54684;DHT22;40582;53.100;6.686;2023-06-14T12:20:12;27.10;57.00
54684;DHT22;40582;53.100;6.686;2023-06-14T12:22:55;27.20;57.00
54684;DHT22;40582;53.100;6.686;2023-06-14T12:25:35;27.10;56.90
54684;DHT22;40582;53.100;6.686;2023-06-14T12:28:07;27.30;57.30
54684;DHT22;40582;53.100;6.686;2023-06-14T12:30:34;27.50;56.00
54684;DHT22;40582;53.100;6.686;2023-06-14T12:33:02;27.40;56.00
54684;DHT22;40582;53.100;6.686;2023-06-14T12:35:27;26.80;55.80
54684;DHT22;40582;53.100;6.686;2023-06-14T12:37:53;26.60;56.80
54684;DHT22;40582;53.100;6.686;2023-06-14T12:40:19;26.40;57.50
54684;DHT22;40582;53.100;6.686;2023-06-14T12:42:45;26.40;57.90
54684;DHT22;40582;53.100;6.686;2023-06-14T12:45:14;26.40;57.40
54684;DHT22;40582;53.100;6.686;2023-06-14T12:47:40;26.60;57.30
54684;DHT22;40582;53.100;6.686;2023-06-14T12:50:06;26.80;56.70
54684;DHT22;40582;53.100;6.686;2023-06-14T12:52:32;27.00;56.70
54684;DHT22;40582;53.100;6.686;2023-06-14T12:55:05;27.10;56.40
54684;DHT22;40582;53.100;6.686;2023-06-14T12:57:31;26.90;56.80
54684;DHT22;40582;53.100;6.686;2023-06-14T12:59:57;26.70;57.00
54684;DHT22;40582;53.100;6.686;2023-06-14T13:02:23;26.60;57.00
54684;DHT22;40582;53.100;6.686;2023-06-14T13:04:50;26.50;57.30
54684;DHT22;40582;53.100;6.686;2023-06-14T13:07:16;26.40;57.60
54684;DHT22;40582;53.100;6.686;2023-06-14T13:09:42;26.60;58.00
54684;DHT22;40582;53.100;6.686;2023-06-14T13:12:12;26.70;57.60
54684;DHT22;40582;53.100;6.686;2023-06-14T13:14:39;26.90;57.80
54684;DHT22;40582;53.100;6.686;2023-06-14T13:17:07;27.00;57.50
54684;DHT22;40582;53.100;6.686;2023-06-14T13:19:33;26.80;57.70
54684;DHT22;40582;53.100;6.686;2023-06-14T13:21:58;26.70;57.70
54684;DHT22;40582;53.100;6.686;2023-06-14T13:24:24;26.80;57.40
54684;DHT22;40582;53.100;6.686;2023-06-14T13:26:50;26.70;57.90
54684;DHT22;40582;53.100;6.686;2023-06-14T13:29:16;26.50;57.50
54684;DHT22;40582;53.100;6.686;2023-06-14T13:31:42;26.40;57.30
54684;DHT22;40582;53.100;6.686;2023-06-14T13:34:07;26.50;57.10
54684;DHT22;40582;53.100;6.686;2023-06-14T13:36:33;26.70;56.80
54684;DHT22;40582;53.100;6.686;2023-06-14T13:38:59;27.00;57.20
54684;DHT22;40582;53.100;6.686;2023-06-14T13:41:27;27.10;57.90
54684;DHT22;40582;53.100;6.686;2023-06-14T13:43:59;27.30;57.20
54684;DHT22;40582;53.100;6.686;2023-06-14T13:46:25;27.50;57.80
54684;DHT22;40582;53.100;6.686;2023-06-14T13:48:51;27.50;57.40
54684;DHT22;40582;53.100;6.686;2023-06-14T13:51:17;27.50;57.10
54684;DHT22;40582;53.100;6.686;2023-06-14T13:53:47;27.40;57.20
54684;DHT22;40582;53.100;6.686;2023-06-14T13:56:13;27.30;57.40
54684;DHT22;40582;53.100;6.686;2023-06-14T13:58:38;27.20;57.90
54684;DHT22;40582;53.100;6.686;2023-06-14T14:01:04;26.90;58.20
54684;DHT22;40582;53.100;6.686;2023-06-14T14:03:30;26.50;58.50
54684;DHT22;40582;53.100;6.686;2023-06-14T14:05:56;26.20;58.80
54684;DHT22;40582;53.100;6.686;2023-06-14T14:08:22;25.80;58.40
54684;DHT22;40582;53.100;6.686;2023-06-14T14:10:47;25.90;58.90
54684;DHT22;40582;53.100;6.686;2023-06-14T14:13:13;26.10;58.60
54684;DHT22;40582;53.100;6.686;2023-06-14T14:15:39;26.20;58.80
54684;DHT22;40582;53.100;6.686;2023-06-14T14:18:05;26.10;58.60
54684;DHT22;40582;53.100;6.686;2023-06-14T14:20:31;26.00;59.10
54684;DHT22;40582;53.100;6.686;2023-06-14T14:22:57;25.80;59.30
54684;DHT22;40582;53.100;6.686;2023-06-14T14:25:22;25.60;59.40
54684;DHT22;40582;53.100;6.686;2023-06-14T14:27:48;25.30;59.40
54684;DHT22;40582;53.100;6.686;2023-06-14T14:30:14;25.40;59.20
54684;DHT22;40582;53.100;6.686;2023-06-14T14:32:42;25.40;58.80
54684;DHT22;40582;53.100;6.686;2023-06-14T14:35:08;25.60;58.70
54684;DHT22;40582;53.100;6.686;2023-06-14T14:37:34;25.80;58.80
54684;DHT22;40582;53.100;6.686;2023-06-14T14:40:00;26.10;59.60
54684;DHT22;40582;53.100;6.686;2023-06-14T14:42:25;26.30;58.20
54684;DHT22;40582;53.100;6.686;2023-06-14T14:44:52;26.50;57.50
54684;DHT22;40582;53.100;6.686;2023-06-14T14:47:17;26.80;56.50
54684;DHT22;40582;53.100;6.686;2023-06-14T14:49:43;27.00;56.60
54684;DHT22;40582;53.100;6.686;2023-06-14T14:52:09;27.20;56.80
54684;DHT22;40582;53.100;6.686;2023-06-14T14:54:35;27.00;56.80
54684;DHT22;40582;53.100;6.686;2023-06-14T14:57:01;26.90;57.30
54684;DHT22;40582;53.100;6.686;2023-06-14T14:59:27;26.60;57.80
54684;DHT22;40582;53.100;6.686;2023-06-14T15:01:53;26.40;58.20
54684;DHT22;40582;53.100;6.686;2023-06-14T15:04:18;26.10;58.60
54684;DHT22;40582;53.100;6.686;2023-06-14T15:06:44;25.80;59.00
54684;DHT22;40582;53.100;6.686;2023-06-14T15:09:10;25.60;59.60
54684;DHT22;40582;53.100;6.686;2023-06-14T15:11:36;25.40;59.70
54684;DHT22;40582;53.100;6.686;2023-06-14T15:14:02;25.30;59.40
54684;DHT22;40582;53.100;6.686;2023-06-14T15:16:27;25.30;59.40
54684;DHT22;40582;53.100;6.686;2023-06-14T15:18:53;25.20;59.00
54684;DHT22;40582;53.100;6.686;2023-06-14T15:21:19;25.20;59.20
54684;DHT22;40582;53.100;6.686;2023-06-14T15:23:47;25.40;59.10
54684;DHT22;40582;53.100;6.686;2023-06-14T15:26:13;25.70;58.70
54684;DHT22;40582;53.100;6.686;2023-06-14T15:28:39;26.10;58.90
54684;DHT22;40582;53.100;6.686;2023-06-14T15:31:05;26.40;58.60
54684;DHT22;40582;53.100;6.686;2023-06-14T15:33:31;26.70;58.40
54684;DHT22;40582;53.100;6.686;2023-06-14T15:35:57;26.70;57.60
54684;DHT22;40582;53.100;6.686;2023-06-14T15:38:22;26.50;57.80
54684;DHT22;40582;53.100;6.686;2023-06-14T15:40:48;26.10;58.00
54684;DHT22;40582;53.100;6.686;2023-06-14T15:43:14;25.80;59.10
54684;DHT22;40582;53.100;6.686;2023-06-14T15:45:39;25.70;59.80